createdAt,value
2018-09-28T00:01:43.474Z,7.03
2018-09-28T00:04:13.827Z,7.93
2018-09-28T00:06:44.131Z,8.10
2018-09-28T00:09:14.484Z,8.73
2018-09-28T00:11:44.891Z,7.60
2018-09-28T00:14:15.237Z,8.10
2018-09-28T00:16:45.555Z,11.10
2018-09-28T00:19:15.890Z,7.80
2018-09-28T00:21:46.200Z,8.43
2018-09-28T00:24:16.636Z,7.67
2018-09-28T00:26:46.918Z,10.43
2018-09-28T00:29:17.413Z,7.67
2018-09-28T00:31:47.715Z,8.37
2018-09-28T00:34:18.140Z,9.07
2018-09-28T00:36:48.517Z,10.10
2018-09-28T00:39:18.928Z,7.77
2018-09-28T00:41:49.282Z,11.43
2018-09-28T00:44:19.746Z,8.60
2018-09-28T00:46:50.671Z,7.40
2018-09-28T00:49:20.974Z,7.10
2018-09-28T00:51:51.230Z,7.37
2018-09-28T00:54:21.638Z,8.37
2018-09-28T00:56:51.947Z,7.53
2018-09-28T00:59:22.242Z,7.77
2018-09-28T01:01:52.639Z,10.40
2018-09-28T01:04:22.985Z,10.13
2018-09-28T01:06:53.315Z,10.20
2018-09-28T01:09:23.581Z,9.53
2018-09-28T01:11:53.996Z,11.97
2018-09-28T01:14:24.255Z,18.87
2018-09-28T01:16:54.553Z,10.40
2018-09-28T01:19:25.332Z,10.70
2018-09-28T01:21:55.672Z,10.10
2018-09-28T01:24:25.956Z,11.00
2018-09-28T01:26:56.204Z,9.00
2018-09-28T01:29:26.492Z,8.17
2018-09-28T01:31:56.827Z,8.97
2018-09-28T01:34:27.349Z,7.90
2018-09-28T01:36:57.725Z,7.53
2018-09-28T01:39:28.109Z,7.93
2018-09-28T01:41:58.525Z,9.03
2018-09-28T01:44:28.886Z,8.17
2018-09-28T01:46:59.186Z,7.43
2018-09-28T01:49:29.545Z,7.40
2018-09-28T01:52:00.667Z,8.80
2018-09-28T01:54:31.006Z,7.00
2018-09-28T01:57:01.386Z,7.53
2018-09-28T01:59:31.699Z,6.77
2018-09-28T02:02:02.015Z,7.30
2018-09-28T02:04:32.364Z,7.90
2018-09-28T02:07:02.691Z,7.10
2018-09-28T02:09:33.118Z,8.37
2018-09-28T02:12:03.539Z,7.07
2018-09-28T02:14:33.966Z,7.20
2018-09-28T02:17:04.286Z,8.00
2018-09-28T02:19:34.755Z,9.43
2018-09-28T02:22:05.193Z,7.50
2018-09-28T02:24:35.655Z,7.40
2018-09-28T02:27:06.198Z,8.00
2018-09-28T02:29:36.636Z,7.90
2018-09-28T02:32:07.201Z,8.07
2018-09-28T02:34:37.602Z,6.57
2018-09-28T02:37:08.378Z,8.00
2018-09-28T02:39:39.843Z,7.50
2018-09-28T02:42:10.153Z,11.30
2018-09-28T02:44:40.661Z,7.87
2018-09-28T02:47:11.075Z,10.23
2018-09-28T02:49:41.426Z,8.00
2018-09-28T02:52:11.812Z,9.70
2018-09-28T02:54:42.185Z,9.53
2018-09-28T02:57:12.510Z,10.30
2018-09-28T02:59:42.779Z,10.27
2018-09-28T03:02:13.188Z,10.93
2018-09-28T03:04:43.521Z,11.10
2018-09-28T03:07:15.257Z,10.40
2018-09-28T03:09:45.632Z,12.10
2018-09-28T03:12:16.019Z,11.67
2018-09-28T03:14:46.386Z,12.10
2018-09-28T03:17:16.710Z,13.47
2018-09-28T03:19:47.102Z,10.13
2018-09-28T03:22:17.620Z,10.83
2018-09-28T03:24:47.995Z,10.70
2018-09-28T03:27:18.404Z,11.53
2018-09-28T03:29:48.738Z,10.20
2018-09-28T03:32:19.018Z,11.30
2018-09-28T03:34:49.392Z,11.30
2018-09-28T03:37:19.736Z,11.50
2018-09-28T03:39:50.192Z,11.20
2018-09-28T03:42:20.501Z,12.73
2018-09-28T03:44:50.971Z,12.63
2018-09-28T03:47:21.347Z,14.13
2018-09-28T03:49:51.718Z,12.97
2018-09-28T03:52:22.057Z,12.50
2018-09-28T03:54:53.742Z,12.67
2018-09-28T03:57:24.093Z,13.17
2018-09-28T03:59:54.536Z,13.43
2018-09-28T04:02:25.030Z,13.90
2018-09-28T04:04:55.416Z,14.00
2018-09-28T04:07:25.838Z,14.50
2018-09-28T04:09:56.183Z,12.47
2018-09-28T04:12:26.602Z,12.23
2018-09-28T04:14:56.943Z,12.10
2018-09-28T04:17:27.373Z,13.03
2018-09-28T04:19:58.733Z,10.70
2018-09-28T04:22:29.088Z,11.53
2018-09-28T04:24:59.579Z,12.13
2018-09-28T04:27:29.993Z,10.90
2018-09-28T04:30:00.392Z,10.63
2018-09-28T04:32:30.795Z,10.97
2018-09-28T04:35:01.181Z,13.03
2018-09-28T04:37:31.553Z,11.87
2018-09-28T04:40:01.919Z,12.17
2018-09-28T04:42:32.337Z,13.93
2018-09-28T04:45:02.694Z,12.07
2018-09-28T04:47:33.203Z,10.87
2018-09-28T04:50:03.602Z,10.97
2018-09-28T04:52:34.073Z,11.60
2018-09-28T04:55:04.524Z,10.57
2018-09-28T04:57:34.938Z,14.40
2018-09-28T05:00:05.463Z,12.00
2018-09-28T05:02:35.750Z,11.67
2018-09-28T05:05:06.307Z,10.87
2018-09-28T05:07:36.615Z,12.07
2018-09-28T05:10:06.989Z,11.73
2018-09-28T05:12:37.338Z,11.53
2018-09-28T05:15:08.514Z,12.97
2018-09-28T05:17:38.833Z,13.07
2018-09-28T05:20:09.769Z,14.50
2018-09-28T05:22:40.574Z,14.60
2018-09-28T05:25:11.029Z,11.20
2018-09-28T05:27:41.367Z,15.60
2018-09-28T05:30:11.735Z,15.60
2018-09-28T05:32:42.309Z,12.10
2018-09-28T05:35:12.575Z,12.97
2018-09-28T05:37:43.086Z,13.33
2018-09-28T05:40:13.651Z,17.67
2018-09-28T05:42:44.027Z,11.90
2018-09-28T05:45:14.417Z,12.57
2018-09-28T05:47:44.729Z,12.97
2018-09-28T05:50:15.175Z,12.60
2018-09-28T05:52:45.478Z,11.97
2018-09-28T05:55:15.858Z,12.93
2018-09-28T05:57:46.638Z,15.00
2018-09-28T06:00:22.352Z,14.37
2018-09-28T06:02:57.719Z,13.20
2018-09-28T06:05:33.768Z,16.03
2018-09-28T06:08:03.984Z,14.13
2018-09-28T06:10:34.403Z,12.07
2018-09-28T06:13:04.852Z,16.53
2018-09-28T06:15:35.233Z,14.97
2018-09-28T06:18:05.736Z,15.80
2018-09-28T06:20:36.050Z,14.53
2018-09-28T06:23:06.521Z,28.43
2018-09-28T06:25:36.884Z,13.40
2018-09-28T06:28:07.315Z,12.30
2018-09-28T06:30:37.723Z,14.70
2018-09-28T06:33:08.288Z,14.80
2018-09-28T06:35:39.044Z,13.00
2018-09-28T06:38:09.687Z,14.67
2018-09-28T06:40:40.146Z,16.03
2018-09-28T06:43:10.884Z,12.00
2018-09-28T06:45:41.256Z,12.27
2018-09-28T06:48:11.688Z,12.43
2018-09-28T06:50:42.023Z,17.03
2018-09-28T06:53:12.369Z,12.30
2018-09-28T06:55:43.209Z,12.13
2018-09-28T06:58:14.548Z,12.27
2018-09-28T07:00:44.876Z,11.87
2018-09-28T07:03:15.253Z,13.43
2018-09-28T07:05:45.574Z,12.77
2018-09-28T07:08:15.948Z,13.63
2018-09-28T07:10:46.264Z,13.00
2018-09-28T07:13:16.603Z,13.50
2018-09-28T07:15:46.919Z,26.93
2018-09-28T07:18:17.338Z,36.70
2018-09-28T07:20:47.736Z,15.13
2018-09-28T07:23:18.118Z,12.83
2018-09-28T07:25:48.532Z,12.30
2018-09-28T07:28:18.911Z,12.03
2018-09-28T07:30:49.300Z,12.33
2018-09-28T07:33:19.818Z,12.83
2018-09-28T07:35:50.305Z,11.17
2018-09-28T07:38:20.736Z,11.37
2018-09-28T07:40:51.086Z,11.60
2018-09-28T07:43:22.012Z,10.07
2018-09-28T07:45:52.454Z,10.33
2018-09-28T07:48:22.828Z,12.20
2018-09-28T07:50:53.149Z,11.60
2018-09-28T07:53:23.429Z,11.33
2018-09-28T07:55:53.881Z,11.00
2018-09-28T07:58:24.388Z,10.10
2018-09-28T08:00:54.774Z,12.87
2018-09-28T08:03:27.054Z,11.33
2018-09-28T08:05:59.005Z,11.80
2018-09-28T08:08:29.381Z,10.30
2018-09-28T08:10:59.708Z,9.30
2018-09-28T08:13:30.035Z,10.20
2018-09-28T08:16:00.409Z,10.20
2018-09-28T08:18:30.782Z,9.37
2018-09-28T08:21:01.178Z,10.47
2018-09-28T08:23:31.560Z,9.27
2018-09-28T08:26:01.828Z,9.40
2018-09-28T08:28:32.316Z,10.00
2018-09-28T08:31:02.678Z,10.47
2018-09-28T08:33:33.546Z,12.83
2018-09-28T08:36:03.980Z,10.43
2018-09-28T08:38:34.365Z,9.90
2018-09-28T08:41:04.717Z,10.20
2018-09-28T08:43:35.230Z,11.50
2018-09-28T08:46:05.534Z,9.23
2018-09-28T08:48:36.023Z,9.13
2018-09-28T08:51:06.997Z,9.80
2018-09-28T08:53:37.337Z,9.60
2018-09-28T08:56:08.293Z,9.33
2018-09-28T08:58:38.634Z,9.13
2018-09-28T09:01:09.099Z,9.70
2018-09-28T09:03:39.766Z,10.80
2018-09-28T09:06:10.126Z,9.20
2018-09-28T09:08:40.774Z,12.00
2018-09-28T09:11:11.147Z,9.10
2018-09-28T09:13:41.445Z,8.73
2018-09-28T09:16:11.817Z,11.53
2018-09-28T09:18:42.144Z,11.57
2018-09-28T09:21:12.674Z,7.30
2018-09-28T09:23:43.092Z,10.87
2018-09-28T09:26:13.466Z,13.30
2018-09-28T09:28:43.867Z,10.93
2018-09-28T09:31:14.221Z,11.50
2018-09-28T09:33:44.610Z,9.57
2018-09-28T09:36:14.990Z,6.40
2018-09-28T09:38:45.413Z,7.50
2018-09-28T09:41:15.985Z,5.53
2018-09-28T09:43:46.541Z,7.17
2018-09-28T09:46:16.889Z,7.40
2018-09-28T09:48:47.270Z,8.37
2018-09-28T09:51:17.668Z,7.37
2018-09-28T09:53:48.053Z,9.70
2018-09-28T09:56:18.505Z,6.83
2018-09-28T09:58:48.904Z,8.53
2018-09-28T10:01:24.349Z,6.17
2018-09-28T10:03:54.713Z,7.60
2018-09-28T10:06:25.024Z,7.53
2018-09-28T10:08:56.572Z,9.80
2018-09-28T10:11:27.078Z,7.03
2018-09-28T10:13:57.469Z,7.07
2018-09-28T10:16:28.049Z,6.50
2018-09-28T10:18:58.602Z,6.87
2018-09-28T10:21:28.987Z,6.40
2018-09-28T10:23:59.933Z,11.00
2018-09-28T10:26:30.461Z,8.97
2018-09-28T10:29:00.776Z,6.30
2018-09-28T10:31:31.149Z,7.40
2018-09-28T10:34:01.616Z,7.07
2018-09-28T10:36:32.089Z,9.50
2018-09-28T10:39:02.649Z,7.73
2018-09-28T10:41:32.972Z,8.03
2018-09-28T10:44:03.300Z,6.83
2018-09-28T10:46:33.736Z,7.77
2018-09-28T10:49:04.040Z,8.70
2018-09-28T10:51:35.216Z,7.50
2018-09-28T10:54:05.601Z,6.90
2018-09-28T10:56:35.906Z,6.50
2018-09-28T10:59:06.661Z,7.03
2018-09-28T11:01:37.061Z,23.70
2018-09-28T11:04:07.651Z,18.50
2018-09-28T11:06:37.949Z,11.10
2018-09-28T11:09:10.880Z,8.37
2018-09-28T11:11:41.972Z,23.13
2018-09-28T11:14:12.373Z,13.27
2018-09-28T11:16:42.785Z,31.90
2018-09-28T11:19:13.242Z,14.37
2018-09-28T11:21:43.714Z,5.50
2018-09-28T11:24:13.960Z,6.27
2018-09-28T11:26:44.461Z,4.90
2018-09-28T11:29:14.944Z,5.23
2018-09-28T11:31:45.376Z,5.40
2018-09-28T11:34:15.728Z,6.03
2018-09-28T11:36:46.185Z,5.70
2018-09-28T11:39:16.529Z,5.30
2018-09-28T11:41:46.899Z,6.00
2018-09-28T11:44:17.409Z,6.00
2018-09-28T11:46:47.780Z,6.77
2018-09-28T11:49:18.113Z,6.57
2018-09-28T11:51:48.612Z,6.10
2018-09-28T11:54:18.925Z,5.20
2018-09-28T11:56:49.247Z,6.10
2018-09-28T11:59:19.741Z,6.00
2018-09-28T12:01:50.219Z,6.60
2018-09-28T12:04:20.638Z,6.50
2018-09-28T12:06:51.678Z,6.90
2018-09-28T12:09:22.053Z,5.80
2018-09-28T12:11:52.503Z,6.37
2018-09-28T12:14:22.876Z,7.53
2018-09-28T12:16:53.384Z,6.20
2018-09-28T12:19:23.808Z,5.63
2018-09-28T12:21:54.781Z,5.90
2018-09-28T12:24:25.215Z,6.10
2018-09-28T12:26:55.701Z,6.60
2018-09-28T12:29:26.157Z,5.80
2018-09-28T12:31:56.620Z,6.17
2018-09-28T12:34:27.009Z,6.30
2018-09-28T12:36:57.457Z,5.47
2018-09-28T12:39:27.889Z,5.93
2018-09-28T12:41:58.364Z,7.03
2018-09-28T12:44:28.907Z,5.73
2018-09-28T12:46:59.196Z,5.13
2018-09-28T12:49:30.220Z,5.60
2018-09-28T12:52:00.667Z,6.80
2018-09-28T12:54:31.075Z,5.30
2018-09-28T12:57:01.429Z,4.40
2018-09-28T12:59:32.109Z,5.13
2018-09-28T13:02:02.910Z,4.67
2018-09-28T13:04:33.239Z,6.67
2018-09-28T13:07:03.627Z,4.60
2018-09-28T13:09:33.970Z,4.93
2018-09-28T13:12:05.212Z,5.47
2018-09-28T13:14:35.757Z,4.77
2018-09-28T13:17:06.037Z,4.30
2018-09-28T13:19:36.369Z,4.77
2018-09-28T13:22:06.807Z,7.90
2018-09-28T13:24:37.213Z,5.70
2018-09-28T13:27:07.644Z,5.00
2018-09-28T13:29:38.008Z,5.47
2018-09-28T13:32:08.337Z,9.27
2018-09-28T13:34:38.631Z,5.60
2018-09-28T13:37:09.852Z,4.73
2018-09-28T13:39:40.245Z,4.87
2018-09-28T13:42:10.616Z,4.73
2018-09-28T13:44:40.977Z,5.10
2018-09-28T13:47:11.254Z,5.27
2018-09-28T13:49:41.605Z,4.60
2018-09-28T13:52:11.953Z,4.10
2018-09-28T13:54:42.489Z,4.50
2018-09-28T13:57:12.740Z,4.80
2018-09-28T13:59:43.063Z,4.97
2018-09-28T14:02:13.468Z,4.83
2018-09-28T14:04:43.795Z,4.37
2018-09-28T14:07:14.347Z,3.60
2018-09-28T14:09:44.482Z,3.50
2018-09-28T14:12:14.987Z,3.60
2018-09-28T14:14:45.282Z,3.40
2018-09-28T14:17:15.711Z,3.13
2018-09-28T14:19:46.028Z,3.33
2018-09-28T14:22:16.691Z,3.30
2018-09-28T14:24:47.234Z,3.17
2018-09-28T14:27:17.621Z,3.33
2018-09-28T14:29:47.969Z,2.97
2018-09-28T14:32:18.331Z,2.40
2018-09-28T14:34:48.684Z,4.10
2018-09-28T14:37:19.028Z,3.27
2018-09-28T14:39:49.349Z,2.43
2018-09-28T14:42:19.704Z,2.63
2018-09-28T14:44:50.119Z,3.00
2018-09-28T14:47:20.441Z,2.93
2018-09-28T14:49:50.920Z,2.90
2018-09-28T14:52:21.377Z,2.30
2018-09-28T14:54:51.735Z,2.60
2018-09-28T14:57:22.109Z,2.93
2018-09-28T14:59:52.480Z,7.67
2018-09-28T15:02:22.921Z,26.10
2018-09-28T15:04:53.205Z,24.73
2018-09-28T15:07:23.603Z,4.47
2018-09-28T15:09:53.855Z,3.50
2018-09-28T15:12:24.422Z,4.90
2018-09-28T15:14:54.722Z,6.37
2018-09-28T15:17:25.001Z,3.93
2018-09-28T15:19:55.370Z,4.40
2018-09-28T15:22:25.709Z,2.73
2018-09-28T15:24:56.042Z,3.00
2018-09-28T15:27:26.352Z,30.63
2018-09-28T15:29:56.697Z,39.50
2018-09-28T15:32:27.111Z,16.13
2018-09-28T15:34:57.433Z,30.40
2018-09-28T15:37:27.745Z,29.67
2018-09-28T15:39:58.213Z,8.67
2018-09-28T15:42:28.580Z,6.43
2018-09-28T15:44:58.988Z,4.43
2018-09-28T15:47:29.418Z,4.40
2018-09-28T15:49:59.849Z,6.07
2018-09-28T15:52:30.389Z,7.57
2018-09-28T15:55:00.740Z,7.53
2018-09-28T15:57:31.106Z,8.50
2018-09-28T16:00:01.465Z,7.97
2018-09-28T16:02:31.856Z,8.20
2018-09-28T16:05:02.334Z,10.70
2018-09-28T16:07:32.672Z,12.63
2018-09-28T16:10:03.064Z,16.30
2018-09-28T16:12:33.506Z,12.50
2018-09-28T16:15:03.853Z,19.00
2018-09-28T16:17:34.220Z,12.83
2018-09-28T16:20:04.761Z,13.20
2018-09-28T16:22:35.179Z,11.37
2018-09-28T16:25:05.758Z,20.90
2018-09-28T16:27:36.109Z,14.20
2018-09-28T16:30:06.774Z,13.93
2018-09-28T16:32:37.070Z,12.13
2018-09-28T16:35:07.442Z,12.10
2018-09-28T16:37:37.877Z,13.47
2018-09-28T16:40:08.504Z,16.53
2018-09-28T16:42:38.996Z,10.90
2018-09-28T16:45:09.531Z,8.97
2018-09-28T16:47:39.949Z,12.10
2018-09-28T16:50:10.395Z,18.13
2018-09-28T16:52:40.895Z,11.30
2018-09-28T16:55:11.366Z,8.77
2018-09-28T16:57:42.222Z,8.17
2018-09-28T17:00:12.578Z,8.17
2018-09-28T17:02:43.098Z,9.57
2018-09-28T17:05:13.913Z,8.90
2018-09-28T17:07:44.403Z,9.30
2018-09-28T17:10:15.020Z,9.20
2018-09-28T17:12:45.433Z,10.17
2018-09-28T17:15:15.970Z,9.07
2018-09-28T17:17:46.414Z,7.97
2018-09-28T18:54:32.708Z,9.70
2018-09-28T18:57:03.091Z,10.23
2018-09-28T18:59:33.662Z,9.70
2018-09-28T19:02:04.089Z,10.33
2018-09-28T19:04:34.858Z,9.57
2018-09-28T19:07:05.498Z,8.50
2018-09-28T19:09:36.170Z,9.47
2018-09-28T19:12:06.721Z,8.57
2018-09-28T19:14:37.444Z,7.53
2018-09-28T19:17:08.175Z,7.77
2018-09-28T19:19:38.595Z,8.33
2018-09-28T19:22:09.097Z,8.53
2018-09-28T19:24:39.547Z,10.30
2018-09-28T19:27:09.973Z,10.67
2018-09-28T19:29:40.346Z,9.33
2018-09-28T19:32:10.797Z,10.60
2018-09-28T19:34:41.154Z,12.27
2018-09-28T19:37:11.521Z,11.10
2018-09-28T19:39:41.945Z,11.80
2018-09-28T19:42:12.406Z,10.77
2018-09-28T19:44:42.759Z,11.03
2018-09-28T19:47:13.185Z,9.97
2018-09-28T19:49:43.588Z,11.73
2018-09-28T19:52:14.316Z,10.10
2018-09-28T19:54:44.783Z,11.67
2018-09-28T19:57:15.270Z,12.43
2018-09-28T19:59:45.665Z,14.50
2018-09-28T20:02:15.969Z,16.33
2018-09-28T20:04:46.313Z,12.70
2018-09-28T20:07:16.637Z,13.57
2018-09-28T20:09:47.043Z,14.93
2018-09-28T20:12:17.466Z,12.97
2018-09-28T20:14:47.883Z,11.17
2018-09-28T20:17:18.217Z,12.47
2018-09-28T20:19:48.608Z,12.27
2018-09-28T20:22:18.906Z,12.27
2018-09-28T20:24:49.274Z,12.33
2018-09-28T20:27:19.638Z,11.03
2018-09-28T20:29:49.926Z,13.00
2018-09-28T20:32:20.286Z,12.80
2018-09-28T20:34:50.621Z,14.60
2018-09-28T20:37:20.991Z,13.23
2018-09-28T20:39:52.585Z,13.50
2018-09-28T20:42:22.985Z,13.13
2018-09-28T20:44:53.346Z,15.83
2018-09-28T20:47:23.689Z,15.10
2018-09-28T20:49:54.065Z,14.67
2018-09-28T20:52:24.452Z,13.03
2018-09-28T20:54:54.811Z,12.53
2018-09-28T20:57:25.237Z,12.90
2018-09-28T20:59:55.862Z,12.90
2018-09-28T21:02:26.195Z,12.87
2018-09-28T21:04:56.482Z,15.33
2018-09-28T21:07:26.949Z,14.83
2018-09-28T21:09:57.226Z,14.63
2018-09-28T21:12:27.574Z,14.63
2018-09-28T21:14:57.903Z,17.57
2018-09-28T21:17:28.283Z,13.90
2018-09-28T21:19:58.734Z,15.97
2018-09-28T21:22:29.056Z,16.50
2018-09-28T21:24:59.362Z,14.90
2018-09-28T21:27:31.248Z,17.17
2018-09-28T21:30:01.868Z,13.77
2018-09-28T21:32:32.232Z,15.77
2018-09-28T21:35:02.634Z,13.87
2018-09-28T21:37:32.929Z,14.00
2018-09-28T21:40:03.337Z,15.63
2018-09-28T21:42:33.668Z,14.07
2018-09-28T21:45:04.128Z,15.87
2018-09-28T21:47:34.886Z,15.80
2018-09-28T21:50:05.265Z,18.57
2018-09-28T21:52:37.180Z,14.00
2018-09-28T21:55:07.564Z,14.73
2018-09-28T21:57:37.896Z,17.67
2018-09-28T22:00:08.418Z,15.37
2018-09-28T22:02:38.941Z,16.57
2018-09-28T22:05:09.293Z,14.87
2018-09-28T22:07:39.630Z,15.20
2018-09-28T22:10:09.991Z,14.73
2018-09-28T22:12:40.378Z,17.53
2018-09-28T22:15:10.773Z,14.70
2018-09-28T22:17:41.159Z,14.50
2018-09-28T22:20:11.531Z,14.07
2018-09-28T22:22:41.839Z,15.07
2018-09-28T22:25:12.300Z,14.50
2018-09-28T22:27:42.635Z,13.97
2018-09-28T22:30:13.032Z,14.47
2018-09-28T22:32:43.281Z,14.33
2018-09-28T22:35:13.650Z,13.93
2018-09-28T22:37:44.037Z,14.07
2018-09-28T22:40:15.733Z,14.53
2018-09-28T22:42:46.075Z,12.67
2018-09-28T22:45:16.390Z,14.37
2018-09-28T22:47:46.762Z,16.07
2018-09-28T22:50:17.089Z,14.13
2018-09-28T22:52:47.413Z,13.37
2018-09-28T22:55:17.726Z,14.63
2018-09-28T22:57:48.040Z,14.23
2018-09-28T23:00:18.360Z,13.43
2018-09-28T23:02:48.980Z,14.00
2018-09-28T23:05:19.290Z,13.73
2018-09-28T23:07:49.653Z,14.33
2018-09-28T23:10:19.984Z,13.10
2018-09-28T23:12:50.374Z,13.37
2018-09-28T23:15:20.657Z,13.37
2018-09-28T23:17:50.986Z,17.27
2018-09-28T23:20:21.268Z,15.00
2018-09-28T23:22:52.062Z,12.13
2018-09-28T23:25:22.404Z,13.00
2018-09-28T23:27:52.764Z,19.17
2018-09-28T23:30:23.057Z,13.93
2018-09-28T23:32:53.448Z,18.20
2018-09-28T23:35:23.729Z,15.03
2018-09-28T23:37:54.137Z,15.73
2018-09-28T23:40:24.417Z,14.43
2018-09-28T23:42:54.708Z,15.10
2018-09-28T23:45:25.028Z,15.47
2018-09-28T23:47:55.406Z,15.97
2018-09-28T23:50:25.744Z,12.27
2018-09-28T23:52:56.199Z,12.60
2018-09-28T23:55:26.509Z,9.30
2018-09-28T23:57:56.838Z,6.37
